createdAt,value
2024-01-16T00:00:58.450Z,91378.00
2024-01-16T00:01:58.410Z,91378.00
2024-01-16T00:02:58.342Z,91378.00
2024-01-16T00:03:58.360Z,91378.00
2024-01-16T00:04:58.331Z,91378.00
2024-01-16T00:05:58.445Z,91378.00
2024-01-16T00:06:58.376Z,91378.00
2024-01-16T00:07:58.292Z,91378.00
2024-01-16T00:08:58.293Z,91378.00
2024-01-16T00:09:58.288Z,91378.00
2024-01-16T00:10:58.260Z,91378.00
2024-01-16T00:11:58.237Z,91378.00
2024-01-16T00:12:58.232Z,91378.00
2024-01-16T00:13:58.213Z,91378.00
2024-01-16T00:14:58.222Z,91378.00
2024-01-16T00:15:58.207Z,91378.00
2024-01-16T00:16:58.183Z,91378.00
2024-01-16T00:17:58.257Z,91378.00
2024-01-16T00:18:58.197Z,91378.00
2024-01-16T00:19:58.160Z,91378.00
2024-01-16T00:20:58.149Z,91378.00
2024-01-16T00:21:58.145Z,91378.00
2024-01-16T00:22:58.122Z,91378.00
2024-01-16T00:23:58.118Z,91378.00
2024-01-16T00:24:58.115Z,91378.00
2024-01-16T00:25:58.132Z,91378.00
2024-01-16T00:26:58.068Z,91378.00
2024-01-16T00:27:58.080Z,91378.00
2024-01-16T00:28:58.067Z,91378.00
2024-01-16T00:29:58.034Z,91378.00
2024-01-16T00:30:58.037Z,91378.00
2024-01-16T00:31:58.016Z,91378.00
2024-01-16T00:32:58.105Z,91378.00
2024-01-16T00:33:58.126Z,91378.00
2024-01-16T00:34:57.996Z,91378.00
2024-01-16T00:35:58.019Z,91378.00
2024-01-16T00:36:57.983Z,91378.00
2024-01-16T00:37:57.975Z,91378.00
2024-01-16T00:38:57.964Z,91378.00
2024-01-16T00:39:57.950Z,91378.00
2024-01-16T00:40:57.941Z,91378.00
2024-01-16T00:41:57.942Z,91378.00
2024-01-16T00:42:57.918Z,91378.00
2024-01-16T00:43:57.914Z,91378.00
2024-01-16T00:44:57.903Z,91378.00
2024-01-16T00:45:57.955Z,91378.00
2024-01-16T00:46:57.881Z,91378.00
2024-01-16T00:47:58.088Z,91378.00
2024-01-16T00:48:57.925Z,91378.00
2024-01-16T00:49:57.867Z,91378.00
2024-01-16T00:50:57.848Z,91378.00
2024-01-16T00:51:57.830Z,91378.00
2024-01-16T00:52:57.817Z,91378.00
2024-01-16T00:53:57.821Z,91378.00
2024-01-16T00:54:57.809Z,91378.00
2024-01-16T00:55:57.949Z,91378.00
2024-01-16T00:56:57.821Z,91378.00
2024-01-16T00:57:57.808Z,91378.00
2024-01-16T00:58:57.815Z,91378.00
2024-01-16T00:59:57.795Z,91378.00
2024-01-16T01:00:57.805Z,91378.00
2024-01-16T01:01:57.787Z,91378.00
2024-01-16T01:02:57.781Z,91378.00
2024-01-16T01:03:57.961Z,91378.00
2024-01-16T01:04:57.769Z,91378.00
2024-01-16T01:05:57.838Z,91378.00
2024-01-16T01:06:57.723Z,91378.00
2024-01-16T01:07:57.716Z,91378.00
2024-01-16T01:08:57.697Z,91378.00
2024-01-16T01:09:57.674Z,91378.00
2024-01-16T01:10:57.701Z,91378.00
2024-01-16T01:11:57.664Z,91378.00
2024-01-16T01:12:57.655Z,91378.00
2024-01-16T01:13:57.664Z,91378.00
2024-01-16T01:14:57.721Z,91378.00
2024-01-16T01:15:57.647Z,91378.00
2024-01-16T01:16:57.618Z,91378.00
2024-01-16T01:17:57.734Z,91378.00
2024-01-16T01:18:57.665Z,91378.00
2024-01-16T01:19:57.597Z,91378.00
2024-01-16T01:20:57.632Z,91378.00
2024-01-16T01:21:57.591Z,91378.00
2024-01-16T01:22:57.556Z,91378.00
2024-01-16T01:23:57.605Z,91378.00
2024-01-16T01:24:57.534Z,91378.00
2024-01-16T01:25:57.538Z,91378.00
2024-01-16T01:26:57.508Z,91378.00
2024-01-16T01:27:57.487Z,91378.00
2024-01-16T01:28:57.473Z,91378.00
2024-01-16T01:29:57.469Z,91378.00
2024-01-16T01:30:57.500Z,91378.00
2024-01-16T01:31:57.471Z,91378.00
2024-01-16T01:32:57.518Z,91378.00
2024-01-16T01:33:57.500Z,91378.00
2024-01-16T01:34:57.401Z,91378.00
2024-01-16T01:35:57.403Z,91378.00
2024-01-16T01:36:57.373Z,91378.00
2024-01-16T01:37:57.369Z,91378.00
2024-01-16T01:38:57.343Z,91378.00
2024-01-16T01:39:57.342Z,91378.00
2024-01-16T01:40:57.317Z,91378.00
2024-01-16T01:41:57.365Z,91378.00
2024-01-16T01:42:57.292Z,91378.00
2024-01-16T01:43:57.283Z,91378.00
2024-01-16T01:44:57.314Z,91378.00
2024-01-16T01:45:57.271Z,91378.00
2024-01-16T01:46:57.253Z,91378.00
2024-01-16T01:47:57.292Z,91378.00
2024-01-16T01:48:57.286Z,91378.00
2024-01-16T01:49:57.197Z,91378.00
2024-01-16T01:50:57.180Z,91378.00
2024-01-16T01:51:57.173Z,91378.00
2024-01-16T01:52:57.162Z,91378.00
2024-01-16T01:53:57.144Z,91378.00
2024-01-16T01:54:57.135Z,91378.00
2024-01-16T01:55:57.151Z,91378.00
2024-01-16T01:56:57.117Z,91378.00
2024-01-16T01:57:57.106Z,91378.00
2024-01-16T01:58:57.086Z,91378.00
2024-01-16T01:59:57.081Z,91378.00
2024-01-16T02:00:57.090Z,91378.00
2024-01-16T02:01:57.053Z,91378.00
2024-01-16T02:02:57.115Z,91378.00
2024-01-16T02:03:57.031Z,91378.00
2024-01-16T02:04:57.052Z,91378.00
2024-01-16T02:05:57.103Z,91378.00
2024-01-16T02:06:56.993Z,91378.00
2024-01-16T02:07:56.992Z,91378.00
2024-01-16T02:08:56.972Z,91378.00
2024-01-16T02:09:56.960Z,91378.00
2024-01-16T02:10:56.958Z,91378.00
2024-01-16T02:11:56.965Z,91378.00
2024-01-16T02:12:56.930Z,91378.00
2024-01-16T02:13:56.928Z,91378.00
2024-01-16T02:14:56.921Z,91378.00
2024-01-16T02:15:56.899Z,91378.00
2024-01-16T02:16:56.890Z,91378.00
2024-01-16T02:17:56.974Z,91378.00
2024-01-16T02:18:56.895Z,91378.00
2024-01-16T02:19:56.888Z,91378.00
2024-01-16T02:20:56.837Z,91378.00
2024-01-16T02:21:56.833Z,91378.00
2024-01-16T02:22:56.820Z,91378.00
2024-01-16T02:23:56.813Z,91378.00
2024-01-16T02:24:56.797Z,91378.00
2024-01-16T02:25:56.769Z,91378.00
2024-01-16T02:26:56.798Z,91378.00
2024-01-16T02:27:56.756Z,91378.00
2024-01-16T02:28:56.735Z,91378.00
2024-01-16T02:29:56.731Z,91378.00
2024-01-16T02:30:56.780Z,91378.00
2024-01-16T02:31:56.696Z,91378.00
2024-01-16T02:32:56.753Z,91378.00
2024-01-16T02:33:56.703Z,91378.00
2024-01-16T02:34:56.657Z,91378.00
2024-01-16T02:35:56.656Z,91378.00
2024-01-16T02:36:56.661Z,91378.00
2024-01-16T02:37:56.630Z,91378.00
2024-01-16T02:38:56.668Z,91378.00
2024-01-16T02:39:56.612Z,91378.00
2024-01-16T02:40:56.611Z,91378.00
2024-01-16T02:41:56.593Z,91378.00
2024-01-16T02:42:56.578Z,91378.00
2024-01-16T02:43:56.566Z,91378.00
2024-01-16T02:44:56.605Z,91378.00
2024-01-16T02:45:56.533Z,91378.00
2024-01-16T02:46:56.535Z,91378.00
2024-01-16T02:47:56.639Z,91378.00
2024-01-16T02:48:56.555Z,91378.00
2024-01-16T02:49:56.487Z,91378.00
2024-01-16T02:50:56.535Z,91378.00
2024-01-16T02:51:56.473Z,91378.00
2024-01-16T02:52:56.451Z,91378.00
2024-01-16T02:53:56.446Z,91378.00
2024-01-16T02:54:56.435Z,91378.00
2024-01-16T02:55:56.419Z,91378.00
2024-01-16T02:56:56.451Z,91378.00
2024-01-16T02:57:56.411Z,91378.00
2024-01-16T02:58:56.396Z,91378.00
2024-01-16T02:59:56.378Z,91378.00
2024-01-16T03:00:56.420Z,91378.00
2024-01-16T03:01:56.598Z,91378.00
2024-01-16T03:02:56.415Z,91378.00
2024-01-16T03:03:56.336Z,91378.00
2024-01-16T03:04:56.324Z,91378.00
2024-01-16T03:05:56.376Z,91378.00
2024-01-16T03:06:56.416Z,91378.00
2024-01-16T03:07:56.289Z,91378.00
2024-01-16T03:08:56.320Z,91378.00
2024-01-16T03:09:56.258Z,91378.00
2024-01-16T03:10:56.243Z,91378.00
2024-01-16T03:11:56.286Z,91378.00
2024-01-16T03:12:56.224Z,91378.00
2024-01-16T03:13:56.227Z,91378.00
2024-01-16T03:14:56.217Z,91378.00
2024-01-16T03:15:56.220Z,91378.00
2024-01-16T03:16:56.186Z,91378.00
2024-01-16T03:17:56.294Z,91378.00
2024-01-16T03:18:56.304Z,91378.00
2024-01-16T03:19:56.182Z,91378.00
2024-01-16T03:20:56.253Z,91378.00
2024-01-16T03:21:56.174Z,91378.00
2024-01-16T03:22:56.153Z,91378.00
2024-01-16T03:23:56.244Z,91378.00
2024-01-16T03:24:56.147Z,91378.00
2024-01-16T03:25:56.139Z,91378.00
2024-01-16T03:26:56.178Z,91378.00
2024-01-16T03:27:56.118Z,91378.00
2024-01-16T03:28:56.106Z,91378.00
2024-01-16T03:29:56.129Z,91378.00
2024-01-16T03:30:56.416Z,91378.00
2024-01-16T03:31:56.098Z,91378.00
2024-01-16T03:32:56.117Z,91378.00
2024-01-16T03:33:56.088Z,91378.00
2024-01-16T03:34:56.034Z,91378.00
2024-01-16T03:35:56.073Z,91378.00
2024-01-16T03:36:56.005Z,91378.00
2024-01-16T03:37:55.989Z,91378.00
2024-01-16T03:38:56.034Z,91378.00
2024-01-16T03:39:56.004Z,91378.00
2024-01-16T03:40:55.965Z,91378.00
2024-01-16T03:41:56.036Z,91378.00
2024-01-16T03:42:55.972Z,91378.00
2024-01-16T03:43:55.977Z,91378.00
2024-01-16T03:44:55.972Z,91378.00
2024-01-16T03:45:55.934Z,91378.00
2024-01-16T03:46:55.932Z,91378.00
2024-01-16T03:47:56.175Z,91378.00
2024-01-16T03:48:56.032Z,91378.00
2024-01-16T03:49:55.904Z,91378.00
2024-01-16T03:50:55.925Z,91378.00
2024-01-16T03:51:55.827Z,91378.00
2024-01-16T03:52:55.902Z,91378.00
2024-01-16T03:53:55.834Z,91378.00
2024-01-16T03:54:55.811Z,91378.00
2024-01-16T03:55:55.786Z,91378.00
2024-01-16T03:56:55.854Z,91378.00
2024-01-16T03:57:55.774Z,91378.00
2024-01-16T03:58:55.765Z,91378.00
2024-01-16T03:59:55.771Z,91378.00
2024-01-16T04:00:55.770Z,91378.00
2024-01-16T04:01:55.721Z,91378.00
2024-01-16T04:02:55.776Z,91378.00
2024-01-16T04:03:55.824Z,91378.00
2024-01-16T04:04:55.722Z,91378.00
2024-01-16T04:05:55.764Z,91378.00
2024-01-16T04:06:55.683Z,91378.00
2024-01-16T04:07:55.672Z,91378.00
2024-01-16T04:08:55.695Z,91378.00
2024-01-16T04:09:55.645Z,91378.00
2024-01-16T04:10:55.639Z,91378.00
2024-01-16T04:11:55.646Z,91378.00
2024-01-16T04:12:55.633Z,91378.00
2024-01-16T04:13:55.606Z,91378.00
2024-01-16T04:14:55.602Z,91378.00
2024-01-16T04:15:55.598Z,91378.00
2024-01-16T04:16:55.586Z,91378.00
2024-01-16T04:17:55.585Z,91378.00
2024-01-16T04:18:55.683Z,91378.00
2024-01-16T04:19:55.570Z,91378.00
2024-01-16T04:20:55.611Z,91378.00
2024-01-16T04:21:55.566Z,91378.00
2024-01-16T04:22:55.536Z,91378.00
2024-01-16T04:23:55.587Z,91378.00
2024-01-16T04:24:55.521Z,91378.00
2024-01-16T04:25:55.531Z,91378.00
2024-01-16T04:27:02.792Z,91984.00
2024-01-16T04:28:03.507Z,91981.00
2024-01-16T04:29:02.784Z,91981.00
2024-01-16T04:30:02.788Z,91979.00
2024-01-16T04:31:09.992Z,91978.00
2024-01-16T04:32:10.099Z,91976.00
2024-01-16T04:33:10.102Z,91977.00
2024-01-16T04:34:10.090Z,91976.00
2024-01-16T04:35:10.133Z,91975.00
2024-01-16T04:36:10.038Z,91976.00
2024-01-16T04:37:10.039Z,91975.00
2024-01-16T04:38:10.091Z,91977.00
2024-01-16T04:39:10.073Z,91975.00
2024-01-16T04:40:10.102Z,91975.00
2024-01-16T04:41:10.081Z,91972.00
2024-01-16T04:42:10.079Z,91975.00
2024-01-16T04:43:10.087Z,91978.00
2024-01-16T04:44:10.132Z,91980.00
2024-01-16T04:45:10.105Z,91978.00
2024-01-16T04:46:10.114Z,91980.00
2024-01-16T04:47:10.175Z,91979.00
2024-01-16T04:48:10.301Z,91977.00
2024-01-16T04:49:10.193Z,91981.00
2024-01-16T04:50:10.204Z,91977.00
2024-01-16T04:51:10.173Z,91980.00
2024-01-16T04:52:10.196Z,91983.00
2024-01-16T04:53:10.205Z,91984.00
2024-01-16T04:54:10.208Z,91986.00
2024-01-16T04:55:10.228Z,91985.00
2024-01-16T04:56:10.293Z,91987.00
2024-01-16T04:57:10.263Z,91988.00
2024-01-16T04:58:10.252Z,91986.00
2024-01-16T04:59:10.321Z,91985.00
2024-01-16T05:00:10.296Z,91984.00
2024-01-16T05:01:10.357Z,91985.00
2024-01-16T05:02:10.388Z,91984.00
2024-01-16T05:03:10.333Z,91983.00
2024-01-16T05:04:10.458Z,91984.00
2024-01-16T05:05:10.461Z,91981.00
2024-01-16T05:06:10.442Z,91985.00
2024-01-16T05:07:10.378Z,91983.00
2024-01-16T05:08:10.517Z,91983.00
2024-01-16T05:09:10.385Z,91982.00
2024-01-16T05:10:10.401Z,91983.00
2024-01-16T05:11:10.414Z,91978.00
2024-01-16T05:12:10.409Z,91975.00
2024-01-16T05:13:10.406Z,91972.00
2024-01-16T05:14:10.436Z,91971.00
2024-01-16T05:15:10.432Z,91970.00
2024-01-16T05:16:10.439Z,91968.00
2024-01-16T05:17:10.471Z,91970.00
2024-01-16T05:18:10.652Z,91971.00
2024-01-16T05:19:10.541Z,91974.00
2024-01-16T05:20:10.521Z,91973.00
2024-01-16T05:21:10.570Z,91977.00
2024-01-16T05:22:10.511Z,91980.00
2024-01-16T05:23:10.574Z,91980.00
2024-01-16T05:24:10.570Z,91986.00
2024-01-16T05:25:10.592Z,91980.00
2024-01-16T05:26:10.629Z,91987.00
2024-01-16T05:27:10.661Z,91986.00
2024-01-16T05:28:10.685Z,91984.00
2024-01-16T05:29:10.755Z,91991.00
2024-01-16T05:30:10.798Z,91981.00
2024-01-16T05:31:10.889Z,91982.00
2024-01-16T05:32:10.842Z,91981.00
2024-01-16T05:33:10.971Z,91983.00
2024-01-16T05:34:11.038Z,91986.00
2024-01-16T05:35:11.040Z,91987.00
2024-01-16T05:36:10.892Z,91990.00
2024-01-16T05:37:10.907Z,91992.00
2024-01-16T05:38:10.959Z,91990.00
2024-01-16T05:39:10.963Z,91986.00
2024-01-16T05:40:10.980Z,91983.00
2024-01-16T05:41:11.024Z,91982.00
2024-01-16T05:42:11.024Z,91982.00
2024-01-16T05:43:11.077Z,91982.00
2024-01-16T05:44:11.113Z,91983.00
2024-01-16T05:45:11.131Z,91984.00
2024-01-16T05:46:11.146Z,91982.00
2024-01-16T05:47:11.229Z,91988.00
2024-01-16T05:48:11.300Z,91986.00
2024-01-16T05:49:11.327Z,91989.00
2024-01-16T05:50:11.363Z,91983.00
2024-01-16T05:51:11.346Z,91985.00
2024-01-16T05:52:11.309Z,91987.00
2024-01-16T05:53:11.390Z,91985.00
2024-01-16T05:54:11.385Z,91980.00
2024-01-16T05:55:11.408Z,91989.00
2024-01-16T05:56:11.451Z,91988.00
2024-01-16T05:57:11.469Z,91991.00
2024-01-16T05:58:14.962Z,91992.00
2024-01-16T05:59:11.539Z,91989.00
2024-01-16T06:00:11.519Z,91984.00
2024-01-16T06:01:11.542Z,91990.00
2024-01-16T06:02:11.547Z,91989.00
2024-01-16T06:03:11.576Z,91984.00
2024-01-16T06:04:14.417Z,91987.00
2024-01-16T06:05:11.654Z,91988.00
2024-01-16T06:06:11.710Z,91986.00
2024-01-16T06:07:11.584Z,91982.00
2024-01-16T06:08:11.663Z,91988.00
2024-01-16T06:09:11.605Z,91982.00
2024-01-16T06:10:11.623Z,91979.00
2024-01-16T06:11:14.383Z,91979.00
2024-01-16T06:12:11.648Z,91986.00
2024-01-16T06:13:11.663Z,91987.00
2024-01-16T06:14:11.707Z,91990.00
2024-01-16T06:15:11.690Z,91990.00
2024-01-16T06:16:11.714Z,91987.00
2024-01-16T06:17:11.738Z,91990.00
2024-01-16T06:18:11.907Z,91993.00
2024-01-16T06:19:11.815Z,91990.00
2024-01-16T06:20:11.805Z,91987.00
2024-01-16T06:21:11.768Z,91987.00
2024-01-16T06:22:11.789Z,91986.00
2024-01-16T06:23:11.836Z,91991.00
2024-01-16T06:24:11.831Z,91991.00
2024-01-16T06:25:11.839Z,91993.00
2024-01-16T06:26:11.869Z,91992.00
2024-01-16T06:27:11.865Z,91996.00
2024-01-16T06:28:11.868Z,91995.00
2024-01-16T06:29:21.418Z,91999.00
2024-01-16T06:30:13.038Z,91997.00
2024-01-16T06:31:11.943Z,91996.00
2024-01-16T06:32:11.944Z,91996.00
2024-01-16T06:33:11.986Z,91992.00
2024-01-16T06:34:12.048Z,91991.00
2024-01-16T06:35:11.977Z,91991.00
2024-01-16T06:36:11.974Z,91994.00
2024-01-16T06:37:11.990Z,91997.00
2024-01-16T06:38:12.054Z,91999.00
2024-01-16T06:39:12.019Z,91998.00
2024-01-16T06:40:12.032Z,91997.00
2024-01-16T06:41:12.069Z,91996.00
2024-01-16T06:42:12.074Z,91997.00
2024-01-16T06:43:12.084Z,91999.00
2024-01-16T06:44:12.112Z,91999.00
2024-01-16T06:45:12.110Z,92003.00
2024-01-16T06:46:12.113Z,92005.00
2024-01-16T06:47:12.156Z,92009.00
2024-01-16T06:48:12.389Z,92010.00
2024-01-16T06:49:12.258Z,92009.00
2024-01-16T06:50:12.218Z,92007.00
2024-01-16T06:51:12.188Z,92005.00
2024-01-16T06:52:12.204Z,92004.00
2024-01-16T06:53:13.740Z,92007.00
2024-01-16T06:54:12.335Z,92013.00
2024-01-16T06:55:12.361Z,92014.00
2024-01-16T06:56:12.411Z,92013.00
2024-01-16T06:57:12.421Z,92017.00
2024-01-16T06:58:12.437Z,92017.00
2024-01-16T06:59:12.552Z,92017.00
2024-01-16T07:00:12.497Z,92018.00
2024-01-16T07:01:12.633Z,92017.00
2024-01-16T07:02:12.577Z,92019.00
2024-01-16T07:03:12.561Z,92020.00
2024-01-16T07:04:13.180Z,92019.00
2024-01-16T07:05:12.711Z,92019.00
2024-01-16T07:06:12.717Z,92022.00
2024-01-16T07:07:13.628Z,92023.00
2024-01-16T07:08:12.713Z,92026.00
2024-01-16T07:09:12.705Z,92025.00
2024-01-16T07:10:12.732Z,92026.00
2024-01-16T07:11:12.852Z,92027.00
2024-01-16T07:12:12.789Z,92031.00
2024-01-16T07:13:12.824Z,92033.00
2024-01-16T07:14:12.911Z,92038.00
2024-01-16T07:15:12.853Z,92039.00
2024-01-16T07:16:12.946Z,92041.00
2024-01-16T07:17:12.978Z,92040.00
2024-01-16T07:18:13.119Z,92044.00
2024-01-16T07:19:13.197Z,92046.00
2024-01-16T07:20:13.067Z,92047.00
2024-01-16T07:21:13.041Z,92048.00
2024-01-16T07:22:13.062Z,92051.00
2024-01-16T07:23:13.106Z,92055.00
2024-01-16T07:24:13.119Z,92057.00
2024-01-16T07:25:13.146Z,92059.00
2024-01-16T07:26:13.219Z,92058.00
2024-01-16T07:27:13.208Z,92058.00
2024-01-16T07:28:13.226Z,92059.00
2024-01-16T07:29:13.333Z,92060.00
2024-01-16T07:30:13.528Z,92060.00
2024-01-16T07:31:13.410Z,92060.00
2024-01-16T07:32:14.142Z,92060.00
2024-01-16T07:33:13.688Z,92068.00
2024-01-16T07:34:13.754Z,92067.00
2024-01-16T07:35:13.762Z,92067.00
2024-01-16T07:36:13.774Z,92071.00
2024-01-16T07:37:13.812Z,92070.00
2024-01-16T07:38:16.660Z,92072.00
2024-01-16T07:39:13.921Z,92072.00
2024-01-16T07:40:14.637Z,92073.00
2024-01-16T07:41:14.007Z,92074.00
2024-01-16T07:42:13.984Z,92074.00
2024-01-16T07:43:14.009Z,92077.00
2024-01-16T07:44:14.653Z,92083.00
2024-01-16T07:45:14.076Z,92086.00
2024-01-16T07:46:14.056Z,92087.00
2024-01-16T07:47:14.114Z,92086.00
2024-01-16T07:48:14.154Z,92088.00
2024-01-16T07:49:14.143Z,92088.00
2024-01-16T07:50:14.178Z,92086.00
2024-01-16T07:51:14.151Z,92087.00
2024-01-16T07:52:14.167Z,92085.00
2024-01-16T07:53:14.184Z,92083.00
2024-01-16T07:54:14.210Z,92085.00
2024-01-16T07:55:14.196Z,92085.00
2024-01-16T07:56:14.242Z,92086.00
2024-01-16T07:57:14.228Z,92085.00
2024-01-16T07:58:14.229Z,92086.00
2024-01-16T07:59:14.238Z,92089.00
2024-01-16T08:00:15.132Z,92089.00
2024-01-16T08:01:14.395Z,92089.00
2024-01-16T08:02:14.352Z,92090.00
2024-01-16T08:03:14.437Z,92091.00
2024-01-16T08:04:14.536Z,92090.00
2024-01-16T08:05:14.621Z,92091.00
2024-01-16T08:06:14.736Z,92091.00
2024-01-16T08:07:14.683Z,92091.00
2024-01-16T08:08:15.586Z,92093.00
2024-01-16T08:09:14.864Z,92094.00
2024-01-16T08:10:17.170Z,92094.00
2024-01-16T08:11:14.915Z,92092.00
2024-01-16T08:12:14.891Z,92092.00
2024-01-16T08:13:14.906Z,92093.00
2024-01-16T08:14:14.956Z,92089.00
2024-01-16T08:15:14.935Z,92092.00
2024-01-16T08:16:14.984Z,92091.00
2024-01-16T08:17:14.989Z,92090.00
2024-01-16T08:18:15.155Z,92091.00
2024-01-16T08:19:15.075Z,92091.00
2024-01-16T08:20:15.017Z,92094.00
2024-01-16T08:21:15.005Z,92099.00
2024-01-16T08:22:15.009Z,92099.00
2024-01-16T08:23:15.134Z,92097.00
2024-01-16T08:24:15.053Z,92096.00
2024-01-16T08:25:15.593Z,92099.00
2024-01-16T08:26:15.090Z,92097.00
2024-01-16T08:27:15.109Z,92095.00
2024-01-16T08:28:15.125Z,92095.00
2024-01-16T08:29:15.149Z,92094.00
2024-01-16T08:30:15.257Z,92094.00
2024-01-16T08:31:15.134Z,92095.00
2024-01-16T08:32:15.234Z,92096.00
2024-01-16T08:33:16.845Z,92099.00
2024-01-16T08:34:15.325Z,92098.00
2024-01-16T08:35:15.351Z,92098.00
2024-01-16T08:36:15.258Z,92099.00
2024-01-16T08:37:16.231Z,92098.00
2024-01-16T08:38:15.295Z,92097.00
2024-01-16T08:39:15.257Z,92097.00
2024-01-16T08:40:15.259Z,92095.00
2024-01-16T08:41:15.296Z,92098.00
2024-01-16T08:42:16.176Z,92100.00
2024-01-16T08:43:15.284Z,92100.00
2024-01-16T08:44:15.323Z,92100.00
2024-01-16T08:45:15.308Z,92102.00
2024-01-16T08:46:15.319Z,92102.00
2024-01-16T08:47:15.385Z,92100.00
2024-01-16T08:48:15.502Z,92101.00
2024-01-16T08:49:18.797Z,92104.00
2024-01-16T08:50:16.505Z,92105.00
2024-01-16T08:51:16.316Z,92104.00
2024-01-16T08:52:15.452Z,92102.00
2024-01-16T08:53:15.515Z,92101.00
2024-01-16T08:54:15.498Z,92104.00
2024-01-16T08:55:15.500Z,92105.00
2024-01-16T08:56:15.519Z,92101.00
2024-01-16T08:57:17.849Z,92099.00
2024-01-16T08:58:15.542Z,92096.00
2024-01-16T08:59:15.557Z,92096.00
2024-01-16T09:00:15.555Z,92095.00
2024-01-16T09:01:15.604Z,92093.00
2024-01-16T09:02:15.614Z,92091.00
2024-01-16T09:03:15.602Z,92087.00
2024-01-16T09:04:15.618Z,92086.00
2024-01-16T09:05:15.686Z,92089.00
2024-01-16T09:06:15.749Z,92089.00
2024-01-16T09:07:15.804Z,92085.00
2024-01-16T09:08:15.740Z,92081.00
2024-01-16T09:09:15.693Z,92082.00
2024-01-16T09:10:15.710Z,92081.00
2024-01-16T09:11:15.747Z,92080.00
2024-01-16T09:12:15.759Z,92080.00
2024-01-16T09:13:15.784Z,92076.00
2024-01-16T09:14:15.816Z,92078.00
2024-01-16T09:15:15.800Z,92079.00
2024-01-16T09:16:16.653Z,92076.00
2024-01-16T09:17:15.857Z,92069.00
2024-01-16T09:18:16.001Z,92065.00
2024-01-16T09:19:15.923Z,92063.00
2024-01-16T09:20:17.080Z,92064.00
2024-01-16T09:21:15.875Z,92069.00
2024-01-16T09:22:15.887Z,92071.00
2024-01-16T09:23:15.896Z,92066.00
2024-01-16T09:24:15.913Z,92064.00
2024-01-16T09:25:15.910Z,92068.00
2024-01-16T09:26:17.719Z,92062.00
2024-01-16T09:27:15.931Z,92065.00
2024-01-16T09:28:15.973Z,92062.00
2024-01-16T09:29:16.019Z,92060.00
2024-01-16T09:30:15.985Z,92058.00
2024-01-16T09:31:16.624Z,92058.00
2024-01-16T09:32:16.012Z,92056.00
2024-01-16T09:33:16.077Z,92054.00
2024-01-16T09:34:16.026Z,92054.00
2024-01-16T09:35:16.057Z,92058.00
2024-01-16T09:36:16.014Z,92057.00
2024-01-16T09:37:16.014Z,92058.00
2024-01-16T09:38:16.053Z,92053.00
2024-01-16T09:39:19.026Z,92047.00
2024-01-16T09:40:16.044Z,92049.00
2024-01-16T09:41:16.095Z,92050.00
2024-01-16T09:42:16.084Z,92051.00
2024-01-16T09:43:16.070Z,92050.00
2024-01-16T09:44:16.104Z,92046.00
2024-01-16T09:45:16.065Z,92051.00
2024-01-16T09:46:16.083Z,92053.00
2024-01-16T09:47:16.088Z,92050.00
2024-01-16T09:48:16.145Z,92049.00
2024-01-16T09:49:16.175Z,92047.00
2024-01-16T09:50:16.153Z,92045.00
2024-01-16T09:51:16.085Z,92045.00
2024-01-16T09:52:16.095Z,92046.00
2024-01-16T09:53:16.109Z,92045.00
2024-01-16T09:54:16.096Z,92044.00
2024-01-16T09:55:16.071Z,92045.00
2024-01-16T09:56:16.149Z,92045.00
2024-01-16T09:57:16.084Z,92042.00
2024-01-16T09:58:16.070Z,92041.00
2024-01-16T09:59:16.159Z,92041.00
2024-01-16T10:00:17.716Z,92040.00
2024-01-16T10:01:16.103Z,92042.00
2024-01-16T10:02:16.100Z,92043.00
2024-01-16T10:03:16.061Z,92045.00
2024-01-16T10:04:16.097Z,92044.00
2024-01-16T10:05:16.161Z,92043.00
2024-01-16T10:06:16.078Z,92039.00
2024-01-16T10:07:16.617Z,92039.00
2024-01-16T10:08:16.075Z,92039.00
2024-01-16T10:09:16.068Z,92039.00
2024-01-16T10:10:21.753Z,92042.00
2024-01-16T10:11:17.636Z,92041.00
2024-01-16T10:12:16.025Z,92041.00
2024-01-16T10:13:16.020Z,92043.00
2024-01-16T10:14:16.040Z,92041.00
2024-01-16T10:15:16.009Z,92041.00
2024-01-16T10:16:16.034Z,92042.00
2024-01-16T10:17:17.330Z,92043.00
2024-01-16T10:18:16.360Z,92042.00
2024-01-16T10:19:16.012Z,92039.00
2024-01-16T10:20:16.066Z,92041.00
2024-01-16T10:21:15.986Z,92036.00
2024-01-16T10:22:16.621Z,92036.00
2024-01-16T10:23:16.000Z,92040.00
2024-01-16T10:24:15.972Z,92038.00
2024-01-16T10:25:16.710Z,92034.00
2024-01-16T10:26:16.006Z,92030.00
2024-01-16T10:27:16.617Z,92024.00
2024-01-16T10:28:15.971Z,92025.00
2024-01-16T10:29:17.154Z,92024.00
2024-01-16T10:30:16.085Z,92021.00
2024-01-16T10:31:16.102Z,92018.00
2024-01-16T10:32:16.078Z,92012.00
2024-01-16T10:33:16.312Z,92010.00
2024-01-16T10:34:16.991Z,92012.00
2024-01-16T10:35:16.704Z,92011.00
2024-01-16T10:36:16.127Z,92006.00
2024-01-16T10:37:16.146Z,91995.00
2024-01-16T10:38:16.199Z,91992.00
2024-01-16T10:39:16.186Z,91992.00
2024-01-16T10:40:16.226Z,91992.00
2024-01-16T10:41:16.310Z,91991.00
2024-01-16T10:42:16.272Z,91992.00
2024-01-16T10:43:16.272Z,91990.00
2024-01-16T10:44:16.332Z,91986.00
2024-01-16T10:45:16.298Z,91986.00
2024-01-16T10:46:17.151Z,91983.00
2024-01-16T10:47:18.248Z,91983.00
2024-01-16T10:48:16.568Z,91985.00
2024-01-16T10:49:16.317Z,91981.00
2024-01-16T10:50:16.398Z,91977.00
2024-01-16T10:51:16.618Z,91976.00
2024-01-16T10:52:16.348Z,91978.00
2024-01-16T10:53:16.402Z,91980.00
2024-01-16T10:54:16.365Z,91978.00
2024-01-16T10:55:16.366Z,91973.00
2024-01-16T10:56:16.422Z,91972.00
2024-01-16T10:57:16.408Z,91970.00
2024-01-16T10:58:16.402Z,91969.00
2024-01-16T10:59:23.255Z,91968.00
2024-01-16T11:00:16.414Z,91969.00
2024-01-16T11:01:16.511Z,91972.00
2024-01-16T11:02:16.404Z,91970.00
2024-01-16T11:03:16.353Z,91967.00
2024-01-16T11:04:16.476Z,91964.00
2024-01-16T11:05:16.460Z,91966.00
2024-01-16T11:06:16.578Z,91962.00
2024-01-16T11:07:16.317Z,91961.00
2024-01-16T11:08:16.344Z,91962.00
2024-01-16T11:09:16.295Z,91965.00
2024-01-16T11:10:16.290Z,91962.00
2024-01-16T11:11:16.373Z,91959.00
2024-01-16T11:12:16.263Z,91957.00
2024-01-16T11:13:16.255Z,91954.00
2024-01-16T11:14:16.303Z,91954.00
2024-01-16T11:15:17.267Z,91952.00
2024-01-16T11:16:16.231Z,91949.00
2024-01-16T11:17:16.279Z,91947.00
2024-01-16T11:18:16.337Z,91945.00
2024-01-16T11:19:31.399Z,91942.00
2024-01-16T11:20:30.128Z,91938.00
2024-01-16T11:21:18.204Z,91935.00
2024-01-16T11:22:16.295Z,91934.00
2024-01-16T11:23:16.197Z,91935.00
2024-01-16T11:24:16.163Z,91931.00
2024-01-16T11:25:16.219Z,91933.00
2024-01-16T11:26:16.308Z,91933.00
2024-01-16T11:27:16.113Z,91930.00
2024-01-16T11:28:16.112Z,91927.00
2024-01-16T11:29:16.131Z,91926.00
2024-01-16T11:30:16.132Z,91923.00
2024-01-16T11:31:16.102Z,91921.00
2024-01-16T11:32:27.460Z,91923.00
2024-01-16T11:33:17.316Z,91922.00
2024-01-16T11:34:17.046Z,91922.00
2024-01-16T11:35:16.296Z,91924.00
2024-01-16T11:36:16.218Z,91922.00
2024-01-16T11:37:16.233Z,91918.00
2024-01-16T11:38:17.274Z,91914.00
2024-01-16T11:39:16.372Z,91915.00
2024-01-16T11:40:16.343Z,91916.00
2024-01-16T11:41:17.118Z,91918.00
2024-01-16T11:42:16.537Z,91917.00
2024-01-16T11:43:16.382Z,91915.00
2024-01-16T11:44:17.578Z,91910.00
2024-01-16T11:45:16.390Z,91905.00